createdAt,value
2023-01-25T00:01:28.090Z,6.38
2023-01-25T00:06:30.532Z,6.48
2023-01-25T00:11:33.161Z,6.34
2023-01-25T00:16:36.080Z,6.14
2023-01-25T00:21:41.371Z,6.31
2023-01-25T00:26:44.255Z,6.39
2023-01-25T00:32:01.747Z,6.34
2023-01-25T00:37:21.665Z,6.57
2023-01-25T00:42:24.371Z,6.61
2023-01-25T00:47:27.027Z,6.69
2023-01-25T00:52:29.397Z,6.58
2023-01-25T00:57:31.803Z,6.66
2023-01-25T01:02:34.530Z,6.51
2023-01-25T01:07:37.050Z,6.22
2023-01-25T01:12:39.745Z,6.21
2023-01-25T01:17:43.054Z,6.19
2023-01-25T01:22:47.954Z,6.30
2023-01-25T01:27:50.532Z,6.43
2023-01-25T01:32:53.158Z,6.18
2023-01-25T01:37:55.751Z,6.17
2023-01-25T01:43:05.815Z,6.29
2023-01-25T01:48:56.573Z,6.45
2023-01-25T01:54:12.073Z,6.45
2023-01-25T01:59:16.370Z,6.45
2023-01-25T02:04:20.774Z,6.48
2023-01-25T02:09:26.208Z,6.39
2023-01-25T02:14:30.729Z,6.33
2023-01-25T02:20:13.680Z,6.52
2023-01-25T02:25:17.707Z,6.56
2023-01-25T02:30:20.224Z,6.37
2023-01-25T02:35:25.792Z,6.39
2023-01-25T02:40:31.315Z,6.41
2023-01-25T02:45:33.814Z,6.50
2023-01-25T02:50:36.424Z,6.60
2023-01-25T02:55:38.881Z,6.64
2023-01-25T03:00:43.871Z,6.86
2023-01-25T03:05:46.786Z,6.84
2023-01-25T03:10:49.441Z,6.80
2023-01-25T03:15:52.897Z,6.65
2023-01-25T03:20:55.745Z,6.56
2023-01-25T03:26:15.979Z,6.27
2023-01-25T03:31:34.961Z,6.02
2023-01-25T03:36:37.746Z,6.37
2023-01-25T03:41:40.706Z,6.42
2023-01-25T03:46:46.445Z,6.51
2023-01-25T03:51:49.304Z,6.61
2023-01-25T03:56:53.753Z,6.62
2023-01-25T04:02:00.638Z,6.38
2023-01-25T04:07:03.166Z,6.40
2023-01-25T04:12:08.229Z,6.45
2023-01-25T04:17:11.030Z,6.64
2023-01-25T04:22:23.620Z,6.70
2023-01-25T04:27:29.370Z,6.48
2023-01-25T04:32:40.850Z,6.53
2023-01-25T04:37:59.744Z,6.61
2023-01-25T04:43:12.727Z,6.84
2023-01-25T04:48:16.015Z,6.95
2023-01-25T04:53:25.326Z,6.91
2023-01-25T04:58:29.256Z,6.71
2023-01-25T05:03:32.212Z,6.69
2023-01-25T05:08:34.956Z,6.84
2023-01-25T05:13:39.083Z,6.86
2023-01-25T05:18:51.376Z,6.96
2023-01-25T05:23:57.579Z,6.93
2023-01-25T05:29:00.224Z,6.88
2023-01-25T05:34:19.681Z,6.80
2023-01-25T05:39:23.197Z,6.77
2023-01-25T05:44:27.381Z,6.99
2023-01-25T05:49:30.613Z,6.99
2023-01-25T05:54:33.658Z,6.91
2023-01-25T05:59:40.437Z,7.06
2023-01-25T06:04:45.304Z,6.84
2023-01-25T06:09:49.359Z,6.95
2023-01-25T06:14:53.894Z,6.93
2023-01-25T06:19:56.500Z,6.80
2023-01-25T06:25:19.411Z,6.98
2023-01-25T06:30:21.963Z,6.75
2023-01-25T06:35:24.385Z,6.74
2023-01-25T06:40:28.347Z,6.69
2023-01-25T06:45:30.978Z,6.97
2023-01-25T06:50:33.577Z,7.05
2023-01-25T06:55:36.199Z,7.06
2023-01-25T07:00:38.618Z,7.11
2023-01-25T07:05:40.977Z,7.11
2023-01-25T07:10:43.630Z,6.93
2023-01-25T07:15:51.801Z,6.95
2023-01-25T07:20:54.314Z,7.04
2023-01-25T07:25:58.211Z,7.20
2023-01-25T07:31:08.147Z,7.19
2023-01-25T07:36:12.014Z,7.19
2023-01-25T07:41:16.560Z,7.16
2023-01-25T07:46:19.560Z,6.93
2023-01-25T07:51:23.471Z,6.86
2023-01-25T07:56:29.242Z,7.09
2023-01-25T08:01:34.432Z,7.05
2023-01-25T08:06:39.395Z,6.93
2023-01-25T08:11:43.011Z,7.08
2023-01-25T08:16:45.909Z,7.04
2023-01-25T08:21:48.826Z,7.05
2023-01-25T08:26:51.265Z,7.12
2023-01-25T08:31:53.895Z,7.23
2023-01-25T08:36:56.396Z,7.31
2023-01-25T08:41:58.826Z,7.39
2023-01-25T08:47:01.303Z,7.26
2023-01-25T08:52:03.838Z,7.20
2023-01-25T08:57:06.455Z,6.97
2023-01-25T09:02:12.218Z,7.16
2023-01-25T09:07:14.797Z,7.25
2023-01-25T09:12:17.593Z,7.32
2023-01-25T09:17:20.226Z,7.15
2023-01-25T09:22:22.580Z,7.38
2023-01-25T09:27:25.022Z,7.42
2023-01-25T09:32:27.548Z,7.29
2023-01-25T09:37:30.836Z,7.25
2023-01-25T09:42:36.208Z,7.31
2023-01-25T09:48:05.651Z,7.27
2023-01-25T09:53:39.149Z,7.22
2023-01-25T09:58:45.565Z,7.00
2023-01-25T10:04:13.253Z,7.15
2023-01-25T10:09:15.942Z,7.20
2023-01-25T10:14:23.391Z,7.03
2023-01-25T10:19:40.440Z,7.36
2023-01-25T10:25:06.718Z,7.61
2023-01-25T10:30:29.452Z,7.31
2023-01-25T10:35:41.278Z,7.27
2023-01-25T10:41:08.848Z,7.27
2023-01-25T10:46:25.302Z,7.42
2023-01-25T10:51:37.949Z,7.33
2023-01-25T10:56:41.228Z,7.33
2023-01-25T11:01:44.282Z,7.26
2023-01-25T11:06:51.591Z,7.35
2023-01-25T11:12:07.459Z,7.50
2023-01-25T11:17:24.076Z,7.04
2023-01-25T11:22:26.518Z,7.02
2023-01-25T11:27:29.016Z,7.15
2023-01-25T11:32:31.862Z,7.15
2023-01-25T11:38:01.583Z,7.20
2023-01-25T11:43:32.887Z,7.13
2023-01-25T11:48:43.550Z,7.22
2023-01-25T11:54:18.114Z,7.25
2023-01-25T11:59:46.494Z,7.21
2023-01-25T12:05:22.448Z,7.00
2023-01-25T12:10:27.863Z,7.25
2023-01-25T12:15:48.783Z,7.21
2023-01-25T12:21:17.489Z,7.25
2023-01-25T12:27:02.510Z,7.18
2023-01-25T12:32:17.442Z,7.24
2023-01-25T12:37:27.323Z,7.16
2023-01-25T12:42:36.822Z,7.25
2023-01-25T12:47:56.100Z,7.30
2023-01-25T12:53:19.163Z,7.28
2023-01-25T12:58:37.742Z,7.34
2023-01-25T13:03:59.639Z,7.10
2023-01-25T13:09:26.541Z,6.90
2023-01-25T13:14:38.290Z,7.05
2023-01-25T13:19:42.981Z,7.20
2023-01-25T13:25:06.355Z,7.30
2023-01-25T13:30:29.802Z,7.30
2023-01-25T13:35:32.397Z,6.91
2023-01-25T13:40:36.542Z,6.60
2023-01-25T13:45:41.731Z,6.64
2023-01-25T13:50:48.812Z,6.56
2023-01-25T13:55:57.068Z,6.95
2023-01-25T14:01:09.008Z,7.21
2023-01-25T14:06:27.789Z,7.36
2023-01-25T14:11:34.551Z,7.21
2023-01-25T14:16:37.142Z,6.81
2023-01-25T14:21:39.771Z,6.98
2023-01-25T14:26:45.488Z,6.53
2023-01-25T14:31:51.968Z,6.38
2023-01-25T14:37:16.524Z,6.55
2023-01-25T14:42:20.232Z,6.80
2023-01-25T14:47:33.598Z,6.64
2023-01-25T14:52:39.447Z,6.40
2023-01-25T14:57:42.399Z,6.47
2023-01-25T15:03:00.114Z,6.85
2023-01-25T15:08:08.825Z,7.01
2023-01-25T15:13:15.463Z,6.73
2023-01-25T15:18:46.191Z,5.38
2023-01-25T15:23:50.003Z,4.28
2023-01-25T15:28:54.728Z,4.31
2023-01-25T15:33:58.887Z,4.80
2023-01-25T15:39:01.691Z,4.39
2023-01-25T15:44:04.080Z,4.71
2023-01-25T15:49:07.733Z,4.80
2023-01-25T15:54:10.593Z,5.05
2023-01-25T15:59:18.046Z,5.68
2023-01-25T16:04:20.640Z,5.82
2023-01-25T16:09:29.949Z,5.64
2023-01-25T16:14:32.505Z,5.37
2023-01-25T16:19:37.981Z,5.41
2023-01-25T16:24:40.551Z,5.48
2023-01-25T16:29:43.758Z,5.05
2023-01-25T16:34:46.213Z,4.62
2023-01-25T16:39:49.817Z,4.34
2023-01-25T16:44:52.404Z,4.64
2023-01-25T16:49:54.870Z,5.23
2023-01-25T16:54:57.410Z,5.71
2023-01-25T17:00:01.568Z,6.18
2023-01-25T17:05:07.316Z,5.79
2023-01-25T17:10:10.986Z,4.70
2023-01-25T17:15:13.597Z,4.54
2023-01-25T17:20:16.707Z,4.04
2023-01-25T17:25:19.481Z,3.78
2023-01-25T17:30:22.038Z,4.12
2023-01-25T17:35:24.676Z,3.96
2023-01-25T17:40:27.097Z,3.63
2023-01-25T17:45:29.793Z,4.37
2023-01-25T17:50:32.361Z,4.49
2023-01-25T17:55:39.004Z,4.50
2023-01-25T18:00:41.483Z,4.72
2023-01-25T18:05:45.244Z,5.25
2023-01-25T18:10:49.305Z,5.32
2023-01-25T18:15:55.392Z,5.79
2023-01-25T18:21:09.869Z,5.24
2023-01-25T18:26:19.781Z,4.77
2023-01-25T18:31:22.591Z,4.83
2023-01-25T18:36:25.359Z,5.45
2023-01-25T18:41:30.593Z,5.67
2023-01-25T18:46:33.540Z,5.08
2023-01-25T18:51:48.585Z,4.47
2023-01-25T18:56:58.368Z,4.53
2023-01-25T19:02:00.850Z,4.73
2023-01-25T19:07:03.667Z,4.51
2023-01-25T19:12:06.518Z,4.50
2023-01-25T19:17:09.340Z,4.52
2023-01-25T19:22:11.764Z,4.85
2023-01-25T19:27:14.207Z,4.31
2023-01-25T19:32:16.891Z,4.37
2023-01-25T19:37:19.663Z,4.17
2023-01-25T19:42:22.138Z,4.22
2023-01-25T19:47:24.547Z,4.27
2023-01-25T19:52:26.959Z,4.28
2023-01-25T19:57:29.519Z,4.08
2023-01-25T20:02:32.437Z,4.42
2023-01-25T20:07:34.928Z,4.36
2023-01-25T20:12:37.360Z,5.08
2023-01-25T20:17:39.945Z,5.53
2023-01-25T20:22:42.387Z,5.71
2023-01-25T20:27:45.252Z,5.87
2023-01-25T20:32:47.921Z,5.99
2023-01-25T20:37:51.595Z,6.11
2023-01-25T20:42:54.109Z,6.25
2023-01-25T20:47:56.635Z,6.30
2023-01-25T20:52:59.000Z,6.45
2023-01-25T20:58:01.653Z,6.35
2023-01-25T21:03:04.217Z,6.32
2023-01-25T21:08:06.634Z,6.24
2023-01-25T21:13:09.185Z,6.20
2023-01-25T21:18:11.700Z,6.10
2023-01-25T21:23:14.143Z,6.30
2023-01-25T21:28:16.529Z,6.21
2023-01-25T21:33:19.280Z,6.28
2023-01-25T21:38:22.022Z,6.37
2023-01-25T21:43:24.423Z,6.03
2023-01-25T21:49:05.153Z,6.05
2023-01-25T21:54:07.701Z,5.94
2023-01-25T21:59:10.619Z,6.20
2023-01-25T22:04:15.190Z,6.36
2023-01-25T22:09:18.408Z,6.40
2023-01-25T22:14:23.344Z,6.34
2023-01-25T22:19:25.850Z,6.35
2023-01-25T22:24:28.267Z,6.43
2023-01-25T22:29:32.311Z,6.40
2023-01-25T22:34:34.954Z,6.43
2023-01-25T22:39:37.377Z,6.37
2023-01-25T22:44:39.890Z,6.32
2023-01-25T22:49:42.260Z,6.39
2023-01-25T22:54:44.920Z,6.32
2023-01-25T22:59:47.357Z,6.21
2023-01-25T23:04:50.132Z,6.31
2023-01-25T23:09:52.815Z,6.24
2023-01-25T23:14:59.144Z,6.28
2023-01-25T23:20:01.665Z,6.35
2023-01-25T23:25:04.899Z,6.16
2023-01-25T23:30:09.378Z,6.13
2023-01-25T23:35:12.307Z,6.29
2023-01-25T23:40:15.365Z,5.79
2023-01-25T23:45:18.112Z,5.96
2023-01-25T23:50:20.736Z,6.15
2023-01-25T23:55:23.124Z,6.24
